sensor_id;sensor_type;location;lat;lon;timestamp;P1;durP1;ratioP1;P2;durP2;ratioP2
49444;SDS011;35323;43.080;-81.378;2022-10-17T00:00:59;0.57;;;0.55;;
49444;SDS011;35323;43.080;-81.378;2022-10-17T00:03:27;0.45;;;0.43;;
49444;SDS011;35323;43.080;-81.378;2022-10-17T00:05:54;0.30;;;0.30;;
49444;SDS011;35323;43.080;-81.378;2022-10-17T00:08:23;1.00;;;0.52;;
49444;SDS011;35323;43.080;-81.378;2022-10-17T00:11:01;3.20;;;0.65;;
49444;SDS011;35323;43.080;-81.378;2022-10-17T00:13:29;0.60;;;0.60;;
49444;SDS011;35323;43.080;-81.378;2022-10-17T00:16:02;0.35;;;0.35;;
49444;SDS011;35323;43.080;-81.378;2022-10-17T00:18:29;0.25;;;0.25;;
49444;SDS011;35323;43.080;-81.378;2022-10-17T00:20:58;1.30;;;1.20;;
49444;SDS011;35323;43.080;-81.378;2022-10-17T00:23:26;0.88;;;0.88;;
49444;SDS011;35323;43.080;-81.378;2022-10-17T00:26:01;0.65;;;0.43;;
49444;SDS011;35323;43.080;-81.378;2022-10-17T00:28:29;1.65;;;1.27;;
49444;SDS011;35323;43.080;-81.378;2022-10-17T00:30:59;2.67;;;0.60;;
49444;SDS011;35323;43.080;-81.378;2022-10-17T00:33:27;0.50;;;0.50;;
49444;SDS011;35323;43.080;-81.378;2022-10-17T00:36:05;0.45;;;0.40;;
49444;SDS011;35323;43.080;-81.378;2022-10-17T00:38:33;0.30;;;0.30;;
49444;SDS011;35323;43.080;-81.378;2022-10-17T00:41:01;0.43;;;0.30;;
49444;SDS011;35323;43.080;-81.378;2022-10-17T00:43:30;0.85;;;0.40;;
49444;SDS011;35323;43.080;-81.378;2022-10-17T00:46:14;0.52;;;0.52;;
49444;SDS011;35323;43.080;-81.378;2022-10-17T00:48:41;0.10;;;0.10;;
49444;SDS011;35323;43.080;-81.378;2022-10-17T00:51:09;1.08;;;0.68;;
49444;SDS011;35323;43.080;-81.378;2022-10-17T00:53:37;0.32;;;0.32;;
49444;SDS011;35323;43.080;-81.378;2022-10-17T00:56:06;0.68;;;0.43;;
49444;SDS011;35323;43.080;-81.378;2022-10-17T00:58:34;1.27;;;0.60;;
49444;SDS011;35323;43.080;-81.378;2022-10-17T01:01:02;0.82;;;0.82;;
49444;SDS011;35323;43.080;-81.378;2022-10-17T01:03:30;0.40;;;0.40;;
49444;SDS011;35323;43.080;-81.378;2022-10-17T01:05:58;0.52;;;0.30;;
49444;SDS011;35323;43.080;-81.378;2022-10-17T01:08:26;0.60;;;0.60;;
49444;SDS011;35323;43.080;-81.378;2022-10-17T01:13:24;0.30;;;0.30;;
49444;SDS011;35323;43.080;-81.378;2022-10-17T01:21:22;4.95;;;2.65;;
49444;SDS011;35323;43.080;-81.378;2022-10-17T01:27:23;3.28;;;1.75;;
49444;SDS011;35323;43.080;-81.378;2022-10-17T01:29:40;4.97;;;2.65;;
49444;SDS011;35323;43.080;-81.378;2022-10-17T01:32:16;2.00;;;1.67;;
49444;SDS011;35323;43.080;-81.378;2022-10-17T01:34:50;0.75;;;0.70;;
49444;SDS011;35323;43.080;-81.378;2022-10-17T01:37:27;2.17;;;0.77;;
49444;SDS011;35323;43.080;-81.378;2022-10-17T01:40:06;0.68;;;0.68;;
49444;SDS011;35323;43.080;-81.378;2022-10-17T01:42:41;0.20;;;0.20;;
49444;SDS011;35323;43.080;-81.378;2022-10-17T01:47:36;1.00;;;0.82;;
49444;SDS011;35323;43.080;-81.378;2022-10-17T01:50:16;0.77;;;0.77;;
49444;SDS011;35323;43.080;-81.378;2022-10-17T01:52:49;0.95;;;0.57;;
49444;SDS011;35323;43.080;-81.378;2022-10-17T01:55:39;0.30;;;0.30;;
49444;SDS011;35323;43.080;-81.378;2022-10-17T01:58:11;0.52;;;0.40;;
49444;SDS011;35323;43.080;-81.378;2022-10-17T02:00:39;0.63;;;0.63;;
49444;SDS011;35323;43.080;-81.378;2022-10-17T02:03:10;1.80;;;0.50;;
49444;SDS011;35323;43.080;-81.378;2022-10-17T02:05:39;1.00;;;0.50;;
49444;SDS011;35323;43.080;-81.378;2022-10-17T02:08:10;0.63;;;0.43;;
49444;SDS011;35323;43.080;-81.378;2022-10-17T02:20:51;1.15;;;0.88;;
49444;SDS011;35323;43.080;-81.378;2022-10-17T02:23:23;0.52;;;0.52;;
49444;SDS011;35323;43.080;-81.378;2022-10-17T02:26:05;4.60;;;0.65;;
49444;SDS011;35323;43.080;-81.378;2022-10-17T02:29:08;0.70;;;0.63;;
49444;SDS011;35323;43.080;-81.378;2022-10-17T02:31:31;0.43;;;0.43;;
49444;SDS011;35323;43.080;-81.378;2022-10-17T02:34:04;0.88;;;0.52;;
49444;SDS011;35323;43.080;-81.378;2022-10-17T02:36:39;1.13;;;0.55;;
49444;SDS011;35323;43.080;-81.378;2022-10-17T02:39:07;1.05;;;0.90;;
49444;SDS011;35323;43.080;-81.378;2022-10-17T02:41:35;1.42;;;1.08;;
49444;SDS011;35323;43.080;-81.378;2022-10-17T02:44:04;0.47;;;0.47;;
49444;SDS011;35323;43.080;-81.378;2022-10-17T02:46:33;1.23;;;1.13;;
49444;SDS011;35323;43.080;-81.378;2022-10-17T02:51:32;0.75;;;0.47;;
49444;SDS011;35323;43.080;-81.378;2022-10-17T02:54:13;0.73;;;0.70;;
49444;SDS011;35323;43.080;-81.378;2022-10-17T02:56:44;0.65;;;0.57;;
49444;SDS011;35323;43.080;-81.378;2022-10-17T02:59:14;0.73;;;0.55;;
49444;SDS011;35323;43.080;-81.378;2022-10-17T03:01:43;2.20;;;0.75;;
49444;SDS011;35323;43.080;-81.378;2022-10-17T03:04:12;1.48;;;0.93;;
49444;SDS011;35323;43.080;-81.378;2022-10-17T03:06:40;0.95;;;0.40;;
49444;SDS011;35323;43.080;-81.378;2022-10-17T03:09:07;0.60;;;0.60;;
49444;SDS011;35323;43.080;-81.378;2022-10-17T03:11:35;0.63;;;0.57;;
49444;SDS011;35323;43.080;-81.378;2022-10-17T03:14:03;0.57;;;0.57;;
49444;SDS011;35323;43.080;-81.378;2022-10-17T03:16:31;2.65;;;0.55;;
49444;SDS011;35323;43.080;-81.378;2022-10-17T03:18:58;2.30;;;1.40;;
49444;SDS011;35323;43.080;-81.378;2022-10-17T03:21:25;0.63;;;0.50;;
49444;SDS011;35323;43.080;-81.378;2022-10-17T03:23:53;6.20;;;1.00;;
49444;SDS011;35323;43.080;-81.378;2022-10-17T03:26:20;1.75;;;0.82;;
49444;SDS011;35323;43.080;-81.378;2022-10-17T03:28:49;0.82;;;0.82;;
49444;SDS011;35323;43.080;-81.378;2022-10-17T03:31:20;1.13;;;0.63;;
49444;SDS011;35323;43.080;-81.378;2022-10-17T03:33:47;0.93;;;0.65;;
49444;SDS011;35323;43.080;-81.378;2022-10-17T03:36:15;1.10;;;0.68;;
49444;SDS011;35323;43.080;-81.378;2022-10-17T03:38:43;2.17;;;1.63;;
49444;SDS011;35323;43.080;-81.378;2022-10-17T03:41:11;2.47;;;1.40;;
49444;SDS011;35323;43.080;-81.378;2022-10-17T03:43:40;2.30;;;1.88;;
49444;SDS011;35323;43.080;-81.378;2022-10-17T03:46:08;1.88;;;0.75;;
49444;SDS011;35323;43.080;-81.378;2022-10-17T03:48:35;1.75;;;1.30;;
49444;SDS011;35323;43.080;-81.378;2022-10-17T03:51:04;4.40;;;1.38;;
49444;SDS011;35323;43.080;-81.378;2022-10-17T03:53:32;0.93;;;0.80;;
49444;SDS011;35323;43.080;-81.378;2022-10-17T03:56:08;1.48;;;0.95;;
49444;SDS011;35323;43.080;-81.378;2022-10-17T03:58:35;2.20;;;0.88;;
49444;SDS011;35323;43.080;-81.378;2022-10-17T04:01:07;1.15;;;0.50;;
49444;SDS011;35323;43.080;-81.378;2022-10-17T04:03:35;0.85;;;0.73;;
49444;SDS011;35323;43.080;-81.378;2022-10-17T04:06:03;0.52;;;0.52;;
49444;SDS011;35323;43.080;-81.378;2022-10-17T04:08:31;0.82;;;0.82;;
49444;SDS011;35323;43.080;-81.378;2022-10-17T04:11:03;1.40;;;0.70;;
49444;SDS011;35323;43.080;-81.378;2022-10-17T04:13:31;0.50;;;0.50;;
49444;SDS011;35323;43.080;-81.378;2022-10-17T04:16:03;1.05;;;0.80;;
49444;SDS011;35323;43.080;-81.378;2022-10-17T04:21:02;1.48;;;0.73;;
49444;SDS011;35323;43.080;-81.378;2022-10-17T04:23:30;0.75;;;0.70;;
49444;SDS011;35323;43.080;-81.378;2022-10-17T04:25:57;2.00;;;1.00;;
49444;SDS011;35323;43.080;-81.378;2022-10-17T04:28:26;0.63;;;0.63;;
49444;SDS011;35323;43.080;-81.378;2022-10-17T04:31:02;1.15;;;0.98;;
49444;SDS011;35323;43.080;-81.378;2022-10-17T04:33:30;2.70;;;0.85;;
49444;SDS011;35323;43.080;-81.378;2022-10-17T04:35:58;1.15;;;1.05;;
49444;SDS011;35323;43.080;-81.378;2022-10-17T04:38:26;1.35;;;0.90;;
49444;SDS011;35323;43.080;-81.378;2022-10-17T04:40:58;1.70;;;0.90;;
49444;SDS011;35323;43.080;-81.378;2022-10-17T04:43:31;6.97;;;1.08;;
49444;SDS011;35323;43.080;-81.378;2022-10-17T04:45:59;1.30;;;1.00;;
49444;SDS011;35323;43.080;-81.378;2022-10-17T04:48:30;0.70;;;0.70;;
49444;SDS011;35323;43.080;-81.378;2022-10-17T04:51:02;0.70;;;0.65;;
49444;SDS011;35323;43.080;-81.378;2022-10-17T04:53:31;0.77;;;0.77;;
49444;SDS011;35323;43.080;-81.378;2022-10-17T04:55:59;1.58;;;0.55;;
49444;SDS011;35323;43.080;-81.378;2022-10-17T04:58:28;0.57;;;0.57;;
49444;SDS011;35323;43.080;-81.378;2022-10-17T05:00:56;1.00;;;0.73;;
49444;SDS011;35323;43.080;-81.378;2022-10-17T05:03:24;1.02;;;0.50;;
49444;SDS011;35323;43.080;-81.378;2022-10-17T05:05:51;1.10;;;0.55;;
49444;SDS011;35323;43.080;-81.378;2022-10-17T05:08:19;0.57;;;0.57;;
49444;SDS011;35323;43.080;-81.378;2022-10-17T05:10:47;0.75;;;0.70;;
49444;SDS011;35323;43.080;-81.378;2022-10-17T05:13:15;0.60;;;0.60;;
49444;SDS011;35323;43.080;-81.378;2022-10-17T05:15:43;0.85;;;0.50;;
49444;SDS011;35323;43.080;-81.378;2022-10-17T05:18:10;0.63;;;0.60;;
49444;SDS011;35323;43.080;-81.378;2022-10-17T05:20:39;0.73;;;0.70;;
49444;SDS011;35323;43.080;-81.378;2022-10-17T05:23:06;1.02;;;0.95;;
49444;SDS011;35323;43.080;-81.378;2022-10-17T05:25:34;0.80;;;0.80;;
49444;SDS011;35323;43.080;-81.378;2022-10-17T05:28:02;0.30;;;0.30;;
49444;SDS011;35323;43.080;-81.378;2022-10-17T05:30:30;0.73;;;0.73;;
49444;SDS011;35323;43.080;-81.378;2022-10-17T05:33:03;0.80;;;0.80;;
49444;SDS011;35323;43.080;-81.378;2022-10-17T05:35:31;0.50;;;0.50;;
49444;SDS011;35323;43.080;-81.378;2022-10-17T05:37:58;0.75;;;0.75;;
49444;SDS011;35323;43.080;-81.378;2022-10-17T05:40:27;1.50;;;0.60;;
49444;SDS011;35323;43.080;-81.378;2022-10-17T05:42:54;1.20;;;0.90;;
49444;SDS011;35323;43.080;-81.378;2022-10-17T05:45:23;1.73;;;0.93;;
49444;SDS011;35323;43.080;-81.378;2022-10-17T05:47:50;0.43;;;0.43;;
49444;SDS011;35323;43.080;-81.378;2022-10-17T05:50:18;0.52;;;0.52;;
49444;SDS011;35323;43.080;-81.378;2022-10-17T05:52:51;0.50;;;0.50;;
49444;SDS011;35323;43.080;-81.378;2022-10-17T05:55:18;0.77;;;0.77;;
49444;SDS011;35323;43.080;-81.378;2022-10-17T05:57:48;0.85;;;0.75;;
49444;SDS011;35323;43.080;-81.378;2022-10-17T06:00:16;1.25;;;0.85;;
49444;SDS011;35323;43.080;-81.378;2022-10-17T06:02:44;0.63;;;0.63;;
49444;SDS011;35323;43.080;-81.378;2022-10-17T06:05:14;2.20;;;1.05;;
49444;SDS011;35323;43.080;-81.378;2022-10-17T06:07:43;2.10;;;1.20;;
49444;SDS011;35323;43.080;-81.378;2022-10-17T06:10:10;0.57;;;0.57;;
49444;SDS011;35323;43.080;-81.378;2022-10-17T06:12:46;0.85;;;0.60;;
49444;SDS011;35323;43.080;-81.378;2022-10-17T06:15:14;1.73;;;0.80;;
49444;SDS011;35323;43.080;-81.378;2022-10-17T06:17:41;0.50;;;0.50;;
49444;SDS011;35323;43.080;-81.378;2022-10-17T06:20:09;1.08;;;0.70;;
49444;SDS011;35323;43.080;-81.378;2022-10-17T06:22:37;2.15;;;1.00;;
49444;SDS011;35323;43.080;-81.378;2022-10-17T06:25:05;3.47;;;0.82;;
49444;SDS011;35323;43.080;-81.378;2022-10-17T06:27:36;1.17;;;1.08;;
49444;SDS011;35323;43.080;-81.378;2022-10-17T06:30:03;3.47;;;0.82;;
49444;SDS011;35323;43.080;-81.378;2022-10-17T06:32:31;1.77;;;0.90;;
49444;SDS011;35323;43.080;-81.378;2022-10-17T06:34:58;0.77;;;0.77;;
49444;SDS011;35323;43.080;-81.378;2022-10-17T06:37:29;0.75;;;0.75;;
49444;SDS011;35323;43.080;-81.378;2022-10-17T06:40:03;2.25;;;1.00;;
49444;SDS011;35323;43.080;-81.378;2022-10-17T06:42:31;1.08;;;0.95;;
49444;SDS011;35323;43.080;-81.378;2022-10-17T06:44:59;0.88;;;0.77;;
49444;SDS011;35323;43.080;-81.378;2022-10-17T06:47:27;1.05;;;0.88;;
49444;SDS011;35323;43.080;-81.378;2022-10-17T06:49:55;0.70;;;0.70;;
49444;SDS011;35323;43.080;-81.378;2022-10-17T06:52:23;0.50;;;0.50;;
49444;SDS011;35323;43.080;-81.378;2022-10-17T06:54:50;2.88;;;1.98;;
49444;SDS011;35323;43.080;-81.378;2022-10-17T06:57:19;1.20;;;1.10;;
49444;SDS011;35323;43.080;-81.378;2022-10-17T06:59:46;2.80;;;1.33;;
49444;SDS011;35323;43.080;-81.378;2022-10-17T07:02:14;0.60;;;0.52;;
49444;SDS011;35323;43.080;-81.378;2022-10-17T07:04:41;0.88;;;0.88;;
49444;SDS011;35323;43.080;-81.378;2022-10-17T07:07:09;0.75;;;0.75;;
49444;SDS011;35323;43.080;-81.378;2022-10-17T07:09:36;0.75;;;0.75;;
49444;SDS011;35323;43.080;-81.378;2022-10-17T07:12:04;1.25;;;0.82;;
49444;SDS011;35323;43.080;-81.378;2022-10-17T07:14:34;1.33;;;0.98;;
49444;SDS011;35323;43.080;-81.378;2022-10-17T07:17:02;0.50;;;0.50;;
49444;SDS011;35323;43.080;-81.378;2022-10-17T07:19:30;0.60;;;0.60;;
49444;SDS011;35323;43.080;-81.378;2022-10-17T07:21:57;0.90;;;0.90;;
49444;SDS011;35323;43.080;-81.378;2022-10-17T07:24:25;1.00;;;1.00;;
49444;SDS011;35323;43.080;-81.378;2022-10-17T07:26:52;0.70;;;0.60;;
49444;SDS011;35323;43.080;-81.378;2022-10-17T07:29:20;0.80;;;0.80;;
49444;SDS011;35323;43.080;-81.378;2022-10-17T07:31:48;0.50;;;0.50;;
49444;SDS011;35323;43.080;-81.378;2022-10-17T07:34:18;0.52;;;0.52;;
49444;SDS011;35323;43.080;-81.378;2022-10-17T07:36:45;1.33;;;0.60;;
49444;SDS011;35323;43.080;-81.378;2022-10-17T07:39:13;0.85;;;0.85;;
49444;SDS011;35323;43.080;-81.378;2022-10-17T07:41:40;1.50;;;1.40;;
49444;SDS011;35323;43.080;-81.378;2022-10-17T07:44:08;0.63;;;0.63;;
49444;SDS011;35323;43.080;-81.378;2022-10-17T07:46:36;0.70;;;0.70;;
49444;SDS011;35323;43.080;-81.378;2022-10-17T07:49:03;2.13;;;0.60;;
49444;SDS011;35323;43.080;-81.378;2022-10-17T07:51:31;0.40;;;0.40;;
49444;SDS011;35323;43.080;-81.378;2022-10-17T07:53:58;1.05;;;0.70;;
49444;SDS011;35323;43.080;-81.378;2022-10-17T07:56:26;0.60;;;0.60;;
49444;SDS011;35323;43.080;-81.378;2022-10-17T07:58:57;0.40;;;0.40;;
49444;SDS011;35323;43.080;-81.378;2022-10-17T08:01:34;0.50;;;0.50;;
49444;SDS011;35323;43.080;-81.378;2022-10-17T08:04:03;1.27;;;1.20;;
49444;SDS011;35323;43.080;-81.378;2022-10-17T08:06:30;0.55;;;0.55;;
49444;SDS011;35323;43.080;-81.378;2022-10-17T08:08:58;0.47;;;0.47;;
49444;SDS011;35323;43.080;-81.378;2022-10-17T08:11:29;0.95;;;0.95;;
49444;SDS011;35323;43.080;-81.378;2022-10-17T08:13:57;0.70;;;0.70;;
49444;SDS011;35323;43.080;-81.378;2022-10-17T08:16:25;0.52;;;0.52;;
49444;SDS011;35323;43.080;-81.378;2022-10-17T08:18:53;0.50;;;0.38;;
49444;SDS011;35323;43.080;-81.378;2022-10-17T08:21:21;0.25;;;0.25;;
49444;SDS011;35323;43.080;-81.378;2022-10-17T08:23:49;0.85;;;0.82;;
49444;SDS011;35323;43.080;-81.378;2022-10-17T08:26:17;1.65;;;0.82;;
49444;SDS011;35323;43.080;-81.378;2022-10-17T08:28:46;0.82;;;0.82;;
49444;SDS011;35323;43.080;-81.378;2022-10-17T08:31:15;0.70;;;0.50;;
49444;SDS011;35323;43.080;-81.378;2022-10-17T08:33:46;3.67;;;0.80;;
49444;SDS011;35323;43.080;-81.378;2022-10-17T08:36:17;0.68;;;0.63;;
49444;SDS011;35323;43.080;-81.378;2022-10-17T08:38:45;0.82;;;0.82;;
49444;SDS011;35323;43.080;-81.378;2022-10-17T08:41:23;0.68;;;0.63;;
49444;SDS011;35323;43.080;-81.378;2022-10-17T08:44:12;1.13;;;1.13;;
49444;SDS011;35323;43.080;-81.378;2022-10-17T08:46:42;2.20;;;1.13;;
49444;SDS011;35323;43.080;-81.378;2022-10-17T08:49:18;1.05;;;0.85;;
49444;SDS011;35323;43.080;-81.378;2022-10-17T08:51:51;2.50;;;1.08;;
49444;SDS011;35323;43.080;-81.378;2022-10-17T08:54:25;0.68;;;0.68;;
49444;SDS011;35323;43.080;-81.378;2022-10-17T08:56:57;1.20;;;0.80;;
49444;SDS011;35323;43.080;-81.378;2022-10-17T08:59:29;1.30;;;0.90;;
49444;SDS011;35323;43.080;-81.378;2022-10-17T09:02:00;1.10;;;0.57;;
49444;SDS011;35323;43.080;-81.378;2022-10-17T09:09:43;0.60;;;0.60;;
49444;SDS011;35323;43.080;-81.378;2022-10-17T09:12:17;0.65;;;0.52;;
49444;SDS011;35323;43.080;-81.378;2022-10-17T09:17:27;0.52;;;0.45;;
49444;SDS011;35323;43.080;-81.378;2022-10-17T09:20:09;1.25;;;0.90;;
49444;SDS011;35323;43.080;-81.378;2022-10-17T09:25:14;1.80;;;0.70;;
49444;SDS011;35323;43.080;-81.378;2022-10-17T09:28:03;0.68;;;0.65;;
49444;SDS011;35323;43.080;-81.378;2022-10-17T09:30:37;0.73;;;0.68;;
49444;SDS011;35323;43.080;-81.378;2022-10-17T09:33:18;1.75;;;0.77;;
49444;SDS011;35323;43.080;-81.378;2022-10-17T09:36:16;0.73;;;0.73;;
49444;SDS011;35323;43.080;-81.378;2022-10-17T09:38:55;2.15;;;1.23;;
49444;SDS011;35323;43.080;-81.378;2022-10-17T09:41:26;1.42;;;0.80;;
49444;SDS011;35323;43.080;-81.378;2022-10-17T09:46:40;1.10;;;1.00;;
49444;SDS011;35323;43.080;-81.378;2022-10-17T09:49:17;1.30;;;1.10;;
49444;SDS011;35323;43.080;-81.378;2022-10-17T09:51:45;0.40;;;0.40;;
49444;SDS011;35323;43.080;-81.378;2022-10-17T09:54:19;1.17;;;0.82;;
49444;SDS011;35323;43.080;-81.378;2022-10-17T09:57:00;2.42;;;1.00;;
49444;SDS011;35323;43.080;-81.378;2022-10-17T09:59:35;2.53;;;1.27;;
49444;SDS011;35323;43.080;-81.378;2022-10-17T10:02:14;0.93;;;0.68;;
49444;SDS011;35323;43.080;-81.378;2022-10-17T10:05:02;2.55;;;1.20;;
49444;SDS011;35323;43.080;-81.378;2022-10-17T10:07:35;1.48;;;0.70;;
49444;SDS011;35323;43.080;-81.378;2022-10-17T10:10:21;1.02;;;0.98;;
49444;SDS011;35323;43.080;-81.378;2022-10-17T10:13:09;1.08;;;1.00;;
49444;SDS011;35323;43.080;-81.378;2022-10-17T10:15:43;2.63;;;1.05;;
49444;SDS011;35323;43.080;-81.378;2022-10-17T10:21:37;2.15;;;1.25;;
49444;SDS011;35323;43.080;-81.378;2022-10-17T10:23:40;2.10;;;1.17;;
49444;SDS011;35323;43.080;-81.378;2022-10-17T10:26:19;1.00;;;0.70;;
49444;SDS011;35323;43.080;-81.378;2022-10-17T10:28:53;0.90;;;0.90;;
49444;SDS011;35323;43.080;-81.378;2022-10-17T10:31:30;1.05;;;0.70;;
49444;SDS011;35323;43.080;-81.378;2022-10-17T10:33:59;1.30;;;1.20;;
49444;SDS011;35323;43.080;-81.378;2022-10-17T10:36:47;2.03;;;1.02;;
49444;SDS011;35323;43.080;-81.378;2022-10-17T10:39:27;3.65;;;1.30;;
49444;SDS011;35323;43.080;-81.378;2022-10-17T10:41:57;1.23;;;1.13;;
49444;SDS011;35323;43.080;-81.378;2022-10-17T10:44:25;2.78;;;1.55;;
49444;SDS011;35323;43.080;-81.378;2022-10-17T10:47:05;4.70;;;1.15;;
49444;SDS011;35323;43.080;-81.378;2022-10-17T10:49:33;2.65;;;0.75;;
49444;SDS011;35323;43.080;-81.378;2022-10-17T10:52:01;1.63;;;1.27;;
49444;SDS011;35323;43.080;-81.378;2022-10-17T10:54:35;3.33;;;1.48;;
49444;SDS011;35323;43.080;-81.378;2022-10-17T10:57:04;2.63;;;1.42;;
49444;SDS011;35323;43.080;-81.378;2022-10-17T11:00:20;1.02;;;0.77;;
49444;SDS011;35323;43.080;-81.378;2022-10-17T11:05:28;1.30;;;0.88;;
49444;SDS011;35323;43.080;-81.378;2022-10-17T11:10:38;3.17;;;1.27;;
49444;SDS011;35323;43.080;-81.378;2022-10-17T11:13:12;1.63;;;1.50;;
49444;SDS011;35323;43.080;-81.378;2022-10-17T11:21:00;1.60;;;1.17;;
49444;SDS011;35323;43.080;-81.378;2022-10-17T11:26:01;1.60;;;1.10;;
49444;SDS011;35323;43.080;-81.378;2022-10-17T11:28:30;3.22;;;1.58;;
49444;SDS011;35323;43.080;-81.378;2022-10-17T11:33:44;1.45;;;1.15;;
49444;SDS011;35323;43.080;-81.378;2022-10-17T11:36:13;1.63;;;1.10;;
49444;SDS011;35323;43.080;-81.378;2022-10-17T11:38:55;1.83;;;1.08;;
49444;SDS011;35323;43.080;-81.378;2022-10-17T11:41:35;3.08;;;1.10;;
49444;SDS011;35323;43.080;-81.378;2022-10-17T11:46:58;1.00;;;0.90;;
49444;SDS011;35323;43.080;-81.378;2022-10-17T11:49:32;1.60;;;1.15;;
49444;SDS011;35323;43.080;-81.378;2022-10-17T11:55:15;0.95;;;0.80;;
49444;SDS011;35323;43.080;-81.378;2022-10-17T11:57:51;3.03;;;2.00;;
49444;SDS011;35323;43.080;-81.378;2022-10-17T12:00:24;3.88;;;1.20;;
49444;SDS011;35323;43.080;-81.378;2022-10-17T12:03:09;1.45;;;1.35;;
49444;SDS011;35323;43.080;-81.378;2022-10-17T12:05:45;3.17;;;1.40;;
49444;SDS011;35323;43.080;-81.378;2022-10-17T12:08:18;1.05;;;1.00;;
49444;SDS011;35323;43.080;-81.378;2022-10-17T12:10:52;1.95;;;1.42;;
49444;SDS011;35323;43.080;-81.378;2022-10-17T12:15:55;2.35;;;1.52;;
49444;SDS011;35323;43.080;-81.378;2022-10-17T12:18:24;1.55;;;1.45;;
49444;SDS011;35323;43.080;-81.378;2022-10-17T12:20:56;1.70;;;1.60;;
49444;SDS011;35323;43.080;-81.378;2022-10-17T12:23:28;1.50;;;0.95;;
49444;SDS011;35323;43.080;-81.378;2022-10-17T12:26:04;2.17;;;1.10;;
49444;SDS011;35323;43.080;-81.378;2022-10-17T12:28:43;2.22;;;1.20;;
49444;SDS011;35323;43.080;-81.378;2022-10-17T12:31:21;1.65;;;0.90;;
49444;SDS011;35323;43.080;-81.378;2022-10-17T12:52:22;2.38;;;1.02;;
49444;SDS011;35323;43.080;-81.378;2022-10-17T12:54:54;3.42;;;1.65;;
49444;SDS011;35323;43.080;-81.378;2022-10-17T12:57:52;0.90;;;0.90;;
49444;SDS011;35323;43.080;-81.378;2022-10-17T13:02:50;1.10;;;1.08;;
49444;SDS011;35323;43.080;-81.378;2022-10-17T13:05:25;1.02;;;0.95;;
49444;SDS011;35323;43.080;-81.378;2022-10-17T13:07:54;1.13;;;0.90;;
49444;SDS011;35323;43.080;-81.378;2022-10-17T13:10:23;2.28;;;1.20;;
49444;SDS011;35323;43.080;-81.378;2022-10-17T13:12:53;0.90;;;0.90;;
49444;SDS011;35323;43.080;-81.378;2022-10-17T13:15:23;1.27;;;1.17;;
49444;SDS011;35323;43.080;-81.378;2022-10-17T13:17:55;1.92;;;0.82;;
49444;SDS011;35323;43.080;-81.378;2022-10-17T13:20:24;0.60;;;0.60;;
49444;SDS011;35323;43.080;-81.378;2022-10-17T13:22:57;1.38;;;1.08;;
49444;SDS011;35323;43.080;-81.378;2022-10-17T13:25:25;2.10;;;1.35;;
49444;SDS011;35323;43.080;-81.378;2022-10-17T13:28:03;1.33;;;0.93;;
49444;SDS011;35323;43.080;-81.378;2022-10-17T13:30:32;2.08;;;1.17;;
49444;SDS011;35323;43.080;-81.378;2022-10-17T13:33:00;1.20;;;0.52;;
49444;SDS011;35323;43.080;-81.378;2022-10-17T13:35:32;1.50;;;1.05;;
49444;SDS011;35323;43.080;-81.378;2022-10-17T13:38:23;0.73;;;0.60;;
49444;SDS011;35323;43.080;-81.378;2022-10-17T13:40:52;1.17;;;1.08;;
49444;SDS011;35323;43.080;-81.378;2022-10-17T13:43:27;1.33;;;1.23;;
49444;SDS011;35323;43.080;-81.378;2022-10-17T13:45:56;2.25;;;1.38;;
49444;SDS011;35323;43.080;-81.378;2022-10-17T13:48:47;1.90;;;1.52;;
49444;SDS011;35323;43.080;-81.378;2022-10-17T13:51:16;1.75;;;1.55;;
49444;SDS011;35323;43.080;-81.378;2022-10-17T13:53:44;2.95;;;1.65;;
49444;SDS011;35323;43.080;-81.378;2022-10-17T13:59:01;0.98;;;0.98;;
49444;SDS011;35323;43.080;-81.378;2022-10-17T14:01:33;1.38;;;1.13;;
49444;SDS011;35323;43.080;-81.378;2022-10-17T14:04:01;1.35;;;1.25;;
49444;SDS011;35323;43.080;-81.378;2022-10-17T14:06:40;1.92;;;1.80;;
49444;SDS011;35323;43.080;-81.378;2022-10-17T14:09:20;1.15;;;1.08;;
49444;SDS011;35323;43.080;-81.378;2022-10-17T14:14:24;1.70;;;1.60;;
49444;SDS011;35323;43.080;-81.378;2022-10-17T14:16:52;4.15;;;2.40;;
49444;SDS011;35323;43.080;-81.378;2022-10-17T14:19:27;4.43;;;2.83;;
49444;SDS011;35323;43.080;-81.378;2022-10-17T14:24:43;3.70;;;3.05;;
49444;SDS011;35323;43.080;-81.378;2022-10-17T14:33:22;2.10;;;1.50;;
49444;SDS011;35323;43.080;-81.378;2022-10-17T14:35:51;3.45;;;2.70;;
49444;SDS011;35323;43.080;-81.378;2022-10-17T14:38:19;1.52;;;1.15;;
49444;SDS011;35323;43.080;-81.378;2022-10-17T14:40:51;1.80;;;1.70;;
49444;SDS011;35323;43.080;-81.378;2022-10-17T14:43:36;1.42;;;1.25;;
49444;SDS011;35323;43.080;-81.378;2022-10-17T14:46:03;1.30;;;1.20;;
49444;SDS011;35323;43.080;-81.378;2022-10-17T14:48:31;2.22;;;1.60;;
49444;SDS011;35323;43.080;-81.378;2022-10-17T14:51:13;1.70;;;1.60;;
49444;SDS011;35323;43.080;-81.378;2022-10-17T14:53:42;3.20;;;1.60;;
49444;SDS011;35323;43.080;-81.378;2022-10-17T14:56:20;2.30;;;1.85;;
49444;SDS011;35323;43.080;-81.378;2022-10-17T14:58:48;2.38;;;1.73;;
49444;SDS011;35323;43.080;-81.378;2022-10-17T15:01:16;1.83;;;1.73;;
49444;SDS011;35323;43.080;-81.378;2022-10-17T15:03:43;2.25;;;1.55;;
49444;SDS011;35323;43.080;-81.378;2022-10-17T15:06:22;2.17;;;1.90;;
49444;SDS011;35323;43.080;-81.378;2022-10-17T15:08:50;3.08;;;2.53;;
49444;SDS011;35323;43.080;-81.378;2022-10-17T15:11:18;2.70;;;2.50;;
49444;SDS011;35323;43.080;-81.378;2022-10-17T15:13:45;3.42;;;2.25;;
49444;SDS011;35323;43.080;-81.378;2022-10-17T15:16:21;5.07;;;2.97;;
49444;SDS011;35323;43.080;-81.378;2022-10-17T15:18:49;5.30;;;3.28;;
49444;SDS011;35323;43.080;-81.378;2022-10-17T15:21:17;3.25;;;2.53;;
49444;SDS011;35323;43.080;-81.378;2022-10-17T15:24:02;2.22;;;2.00;;
49444;SDS011;35323;43.080;-81.378;2022-10-17T15:26:31;1.88;;;1.40;;
49444;SDS011;35323;43.080;-81.378;2022-10-17T15:29:00;3.50;;;2.05;;
49444;SDS011;35323;43.080;-81.378;2022-10-17T15:31:28;2.08;;;1.77;;
49444;SDS011;35323;43.080;-81.378;2022-10-17T15:33:57;4.10;;;3.03;;
49444;SDS011;35323;43.080;-81.378;2022-10-17T15:36:25;3.42;;;2.45;;
49444;SDS011;35323;43.080;-81.378;2022-10-17T15:38:54;2.60;;;2.08;;
49444;SDS011;35323;43.080;-81.378;2022-10-17T15:41:23;1.60;;;1.50;;
49444;SDS011;35323;43.080;-81.378;2022-10-17T15:43:51;2.95;;;1.35;;
49444;SDS011;35323;43.080;-81.378;2022-10-17T15:46:20;1.77;;;1.42;;
49444;SDS011;35323;43.080;-81.378;2022-10-17T15:48:49;3.67;;;1.92;;
49444;SDS011;35323;43.080;-81.378;2022-10-17T15:51:17;2.70;;;1.70;;
49444;SDS011;35323;43.080;-81.378;2022-10-17T15:53:45;5.22;;;1.88;;
49444;SDS011;35323;43.080;-81.378;2022-10-17T15:56:23;1.30;;;1.20;;
49444;SDS011;35323;43.080;-81.378;2022-10-17T15:58:52;1.42;;;1.35;;
49444;SDS011;35323;43.080;-81.378;2022-10-17T16:01:25;1.25;;;1.00;;
49444;SDS011;35323;43.080;-81.378;2022-10-17T16:03:53;1.25;;;0.90;;
49444;SDS011;35323;43.080;-81.378;2022-10-17T16:06:21;0.52;;;0.40;;
49444;SDS011;35323;43.080;-81.378;2022-10-17T16:08:48;0.32;;;0.32;;
49444;SDS011;35323;43.080;-81.378;2022-10-17T16:11:32;1.95;;;0.47;;
49444;SDS011;35323;43.080;-81.378;2022-10-17T16:14:00;0.25;;;0.25;;
49444;SDS011;35323;43.080;-81.378;2022-10-17T16:16:29;0.50;;;0.50;;
49444;SDS011;35323;43.080;-81.378;2022-10-17T16:18:56;0.50;;;0.50;;
49444;SDS011;35323;43.080;-81.378;2022-10-17T16:21:25;0.55;;;0.38;;
49444;SDS011;35323;43.080;-81.378;2022-10-17T16:23:53;0.82;;;0.50;;
49444;SDS011;35323;43.080;-81.378;2022-10-17T16:26:20;0.20;;;0.20;;
49444;SDS011;35323;43.080;-81.378;2022-10-17T16:28:48;0.57;;;0.57;;